Time;durP1;ratioP1;P1;durP2;ratioP2;P2;SDS_P1;SDS_P2;PMS_P1;PMS_P2;Temp;Humidity;BMP_temperature;BMP_pressure;BME280_temperature;BME280_humidity;BME280_pressure;Samples;Min_cycle;Max_cycle;Signal;HPM_P1;HPM_P2
2022/04/28 00:01:57;;;;;;;54.18;29.85;;;;;;;6.57;90.04;98744.02;1761326;81;20869;-57
2022/04/28 00:04:23;;;;;;;51.13;29.85;;;;;;;6.53;91.50;98744.20;1729910;81;20959;-57
2022/04/28 00:06:49;;;;;;;50.88;30.62;;;;;;;6.54;91.99;98749.88;1739097;82;20857;-57
2022/04/28 00:09:15;;;;;;;47.95;28.67;;;;;;;6.54;93.99;98743.15;1744205;82;21397;-57
2022/04/28 00:11:41;;;;;;;51.05;31.50;;;;;;;6.53;94.79;98742.86;1736628;81;21567;-57
2022/04/28 00:14:07;;;;;;;46.05;29.20;;;;;;;6.55;93.70;98745.31;1726205;82;20936;-56
2022/04/28 00:16:35;;;;;;;45.70;26.35;;;;;;;6.55;93.05;98746.66;1724165;81;20996;-56
2022/04/28 00:19:03;;;;;;;47.65;27.10;;;;;;;6.53;92.98;98740.70;1730951;81;21048;-57
2022/04/28 00:21:29;;;;;;;43.03;26.80;;;;;;;6.52;92.97;98740.41;1745815;81;21051;-57
2022/04/28 00:23:55;;;;;;;44.23;26.90;;;;;;;6.49;92.63;98741.17;1742356;80;21552;-57
2022/04/28 00:26:21;;;;;;;41.60;25.60;;;;;;;6.45;93.15;98737.30;1760882;81;20885;-57
2022/04/28 00:28:47;;;;;;;43.05;23.83;;;;;;;6.43;91.62;98732.69;1738240;81;21039;-57
2022/04/28 00:31:13;;;;;;;40.08;22.35;;;;;;;6.38;91.47;98738.47;1725779;82;21020;-57
2022/04/28 00:33:42;;;;;;;44.90;27.62;;;;;;;6.33;91.65;98744.58;1736026;82;21371;-56
2022/04/28 00:36:09;;;;;;;40.58;25.82;;;;;;;6.30;91.63;98746.38;1742680;81;21262;-56
2022/04/28 00:38:35;;;;;;;39.42;24.45;;;;;;;6.32;91.80;98748.83;1706372;82;20950;-57
2022/04/28 00:41:01;;;;;;;39.65;24.77;;;;;;;6.27;91.63;98742.81;1732521;81;20896;-57
2022/04/28 00:43:31;;;;;;;38.53;23.57;;;;;;;6.29;91.94;98743.92;1724524;82;20972;-56
2022/04/28 00:45:57;;;;;;;40.88;24.85;;;;;;;6.29;91.74;98746.08;1737991;82;21026;-58
2022/04/28 00:51:08;;;;;;;41.08;26.15;;;;;;;6.32;92.69;98751.52;1744034;82;21410;-58
2022/04/28 00:53:39;;;;;;;38.35;24.55;;;;;;;6.35;92.42;98750.54;1732100;81;21059;-58
2022/04/28 00:56:05;;;;;;;41.63;25.00;;;;;;;6.34;91.75;98753.47;1732915;82;21136;-57
2022/04/28 00:58:31;;;;;;;42.83;26.82;;;;;;;6.30;91.36;98754.98;1743822;82;20890;-57
2022/04/28 01:00:57;;;;;;;37.40;24.72;;;;;;;6.26;91.71;98755.17;1742049;82;21520;-57
2022/04/28 01:03:30;;;;;;;41.70;26.55;;;;;;;6.22;92.12;98757.48;1728181;82;20872;-57
2022/04/28 01:05:53;;;;;;;44.77;25.40;;;;;;;6.19;93.29;98756.09;1725434;82;21052;-57
2022/04/28 01:08:19;;;;;;;41.35;26.33;;;;;;;6.19;92.03;98750.70;1735392;82;20893;-57
2022/04/28 01:10:45;;;;;;;37.35;25.52;;;;;;;6.19;92.97;98759.31;1740442;82;20873;-57
2022/04/28 01:13:11;;;;;;;41.05;24.45;;;;;;;6.15;94.07;98751.39;1728913;82;21734;-57
2022/04/28 01:15:44;;;;;;;43.13;25.23;;;;;;;6.18;92.60;98750.95;1740301;81;21513;-57
2022/04/28 01:18:10;;;;;;;40.52;25.30;;;;;;;6.15;91.96;98750.90;1754122;81;21035;-57
2022/04/28 01:41:31;;;;;;;41.25;26.30;;;;;;;5.99;92.93;98752.11;1748483;79;20909;-57
2022/04/28 01:43:57;;;;;;;40.15;24.70;;;;;;;5.98;92.50;98753.95;1773081;80;20909;-58
2022/04/28 01:46:23;;;;;;;39.23;24.72;;;;;;;5.93;92.01;98754.66;1794007;79;22024;-58
2022/04/28 01:48:49;;;;;;;41.50;23.87;;;;;;;5.91;91.99;98757.30;1790417;79;20944;-57
2022/04/28 01:56:44;;;;;;;37.65;23.35;;;;;;;5.74;92.87;98747.70;1732628;82;21467;-58
2022/04/28 01:59:10;;;;;;;38.70;23.22;;;;;;;5.70;92.52;98753.23;1767389;79;20990;-58
2022/04/28 02:01:36;;;;;;;43.30;25.70;;;;;;;5.67;92.52;98753.70;1764782;80;20935;-59
2022/04/28 02:04:03;;;;;;;40.90;25.77;;;;;;;5.61;93.51;98756.77;1791609;78;21461;-59
2022/04/28 02:06:29;;;;;;;42.30;27.22;;;;;;;5.58;93.35;98752.39;1803829;78;21474;-59
2022/04/28 02:08:55;;;;;;;37.28;22.93;;;;;;;5.48;94.54;98746.76;1804022;78;20855;-58
2022/04/28 02:14:28;;;;;;;40.85;24.32;;;;;;;5.44;94.63;98750.94;1772477;79;21009;-75
2022/04/28 02:16:53;;;;;;;33.48;22.10;;;;;;;5.38;94.08;98756.20;1842012;77;21033;-77
2022/04/28 02:19:19;;;;;;;37.65;23.45;;;;;;;5.36;93.79;98751.55;1847068;77;21134;-68
2022/04/28 02:21:45;;;;;;;39.15;21.95;;;;;;;5.36;93.75;98754.23;1832997;77;20858;-67
2022/04/28 02:24:11;;;;;;;41.50;23.47;;;;;;;5.32;94.26;98754.41;1831479;78;20902;-68
2022/04/28 02:26:37;;;;;;;36.00;24.40;;;;;;;5.29;93.07;98749.47;1831859;77;20815;-68
2022/04/28 02:29:03;;;;;;;46.30;24.43;;;;;;;5.24;93.91;98756.59;1831730;78;21767;-68
2022/04/28 02:31:29;;;;;;;41.18;23.35;;;;;;;5.20;93.65;98748.67;1831508;78;20983;-65
2022/04/28 02:33:55;;;;;;;42.70;23.18;;;;;;;5.09;94.00;98754.30;1831423;78;21214;-65
2022/04/28 02:36:21;;;;;;;34.90;21.68;;;;;;;5.09;94.00;98754.30;1814474;78;20828;-65
2022/04/28 02:38:47;;;;;;;35.43;19.92;;;;;;;5.10;93.29;98763.47;1798808;79;20875;-65
2022/04/28 02:41:20;;;;;;;40.67;23.77;;;;;;;5.04;92.64;98767.08;1799216;79;21488;-65
2022/04/28 02:43:43;;;;;;;38.20;24.43;;;;;;;5.01;92.65;98773.41;1798294;79;21037;-65
2022/04/28 02:46:09;;;;;;;34.45;22.87;;;;;;;5.01;92.58;98765.35;1811005;78;21663;-66
2022/04/28 02:48:36;;;;;;;40.75;24.18;;;;;;;4.99;92.54;98765.58;1798891;79;20843;-64
2022/04/28 02:51:02;;;;;;;36.60;21.07;;;;;;;4.99;92.88;98765.58;1805156;78;21448;-67
2022/04/28 02:53:28;;;;;;;36.50;22.40;;;;;;;4.97;92.77;98769.02;1784399;79;21505;-69
2022/04/28 02:55:54;;;;;;;35.38;21.97;;;;;;;4.95;92.81;98769.75;1788440;79;20897;-63
2022/04/28 02:58:19;;;;;;;35.38;21.27;;;;;;;4.93;92.35;98775.05;1792872;79;20941;-67
2022/04/28 03:00:45;;;;;;;31.37;19.87;;;;;;;4.88;92.84;98765.53;1797588;79;20865;-68
2022/04/28 03:03:12;;;;;;;32.70;20.25;;;;;;;4.86;92.95;98768.94;1797116;79;22383;-67
2022/04/28 03:11:09;;;;;;;32.33;21.15;;;;;;;4.78;92.56;98776.24;1740890;80;20978;-63
2022/04/28 03:13:35;;;;;;;31.30;19.67;;;;;;;4.73;92.39;98781.48;1709334;82;21028;-64
2022/04/28 03:16:02;;;;;;;39.50;25.15;;;;;;;4.72;92.61;98785.22;1756800;79;21019;-64
2022/04/28 03:18:27;;;;;;;43.48;25.62;;;;;;;4.74;92.73;98780.95;1792157;79;21991;-64
2022/04/28 03:20:54;;;;;;;37.50;23.05;;;;;;;4.76;92.81;98784.23;1803476;78;20886;-64
2022/04/28 03:23:21;;;;;;;43.13;23.20;;;;;;;4.78;92.92;98788.85;1821437;78;21441;-68
2022/04/28 03:25:49;;;;;;;35.25;21.25;;;;;;;4.76;92.92;98790.95;1798947;77;20994;-68
2022/04/28 03:28:15;;;;;;;44.18;23.62;;;;;;;4.75;93.08;98790.13;1798502;79;20994;-66
2022/04/28 03:30:41;;;;;;;42.25;24.15;;;;;;;4.73;92.99;98789.53;1798810;79;22171;-67
2022/04/28 03:33:07;;;;;;;40.55;23.38;;;;;;;4.69;94.63;98788.84;1798731;79;20844;-63
2022/04/28 03:35:33;;;;;;;40.67;22.85;;;;;;;4.70;93.34;98789.14;1798957;79;21017;-63
2022/04/28 03:37:59;;;;;;;37.60;23.80;;;;;;;4.73;93.40;98786.85;1798996;78;20828;-64
2022/04/28 03:40:25;;;;;;;42.80;26.42;;;;;;;4.74;93.31;98786.33;1802966;78;20961;-64
2022/04/28 03:42:51;;;;;;;47.20;27.93;;;;;;;4.70;93.29;98794.52;1815154;78;21537;-63
2022/04/28 03:45:17;;;;;;;41.75;24.32;;;;;;;4.70;94.31;98791.34;1799913;78;20867;-64
2022/04/28 03:47:43;;;;;;;39.53;23.10;;;;;;;4.70;94.59;98795.36;1798705;79;20861;-64
2022/04/28 03:50:09;;;;;;;43.92;23.85;;;;;;;4.72;94.65;98797.30;1807246;78;21386;-64
2022/04/28 03:52:35;;;;;;;39.73;22.67;;;;;;;4.72;94.93;98793.80;1810768;77;20917;-64
2022/04/28 03:55:02;;;;;;;34.30;20.00;;;;;;;4.72;94.77;98793.80;1748760;80;21149;-64
2022/04/28 03:57:28;;;;;;;37.17;20.77;;;;;;;4.73;94.14;98804.30;1771607;78;21446;-64
2022/04/28 03:59:56;;;;;;;35.58;21.55;;;;;;;4.68;93.51;98799.30;1819974;78;20840;-64
2022/04/28 04:02:23;;;;;;;39.10;22.37;;;;;;;4.67;94.36;98802.50;1819208;78;21034;-64
2022/04/28 04:04:49;;;;;;;38.50;20.43;;;;;;;4.66;95.18;98812.13;1727486;82;22101;-64
2022/04/28 04:07:15;;;;;;;35.40;21.07;;;;;;;4.70;94.76;98811.97;1711941;82;21670;-64
2022/04/28 04:09:42;;;;;;;32.83;21.68;;;;;;;4.74;94.50;98809.15;1739762;82;20930;-65
2022/04/28 04:12:08;;;;;;;40.95;21.12;;;;;;;4.75;94.64;98815.64;1805684;78;20976;-65
2022/04/28 04:14:34;;;;;;;36.23;21.37;;;;;;;4.80;94.20;98814.45;1790147;78;21033;-65
2022/04/28 04:17:00;;;;;;;43.00;22.67;;;;;;;4.90;93.80;98815.28;1831553;78;20863;-64
2022/04/28 04:19:26;;;;;;;33.48;22.13;;;;;;;4.94;93.51;98813.77;1831428;78;21250;-63
2022/04/28 04:21:52;;;;;;;41.80;21.25;;;;;;;5.01;93.43;98814.52;1831215;78;20901;-64
2022/04/28 04:24:18;;;;;;;37.25;21.37;;;;;;;5.10;93.33;98820.41;1814298;78;20838;-68
2022/04/28 04:26:44;;;;;;;35.15;23.80;;;;;;;5.12;93.15;98819.66;1802200;79;21072;-67
2022/04/28 04:29:12;;;;;;;34.08;21.40;;;;;;;5.15;92.85;98820.57;1830527;78;20969;-67
2022/04/28 04:34:23;;;;;;;33.53;21.48;;;;;;;5.15;94.27;98819.23;1821879;78;21405;-65
2022/04/28 04:36:48;;;;;;;34.65;21.93;;;;;;;5.14;94.63;98820.28;1768779;79;21014;-65
2022/04/28 04:39:14;;;;;;;44.30;27.48;;;;;;;5.04;95.06;98818.13;1786345;79;20951;-66
2022/04/28 04:41:40;;;;;;;37.63;25.30;;;;;;;5.09;94.75;98822.80;1798533;79;21453;-65
2022/04/28 04:44:13;;;;;;;39.13;25.10;;;;;;;5.08;94.96;98823.33;1798413;79;21147;-65
2022/04/28 04:46:34;;;;;;;56.95;25.15;;;;;;;5.19;94.76;98824.44;1797940;79;21070;-65
2022/04/28 04:49:00;;;;;;;36.88;24.00;;;;;;;5.27;94.75;98824.12;1798678;79;20990;-65
2022/04/28 04:51:26;;;;;;;39.60;26.30;;;;;;;5.40;94.69;98829.88;1799030;79;20918;-65
2022/04/28 04:53:52;;;;;;;53.58;31.57;;;;;;;5.48;94.86;98830.91;1778376;79;21057;-64
2022/04/28 04:56:18;;;;;;;54.27;36.63;;;;;;;5.57;94.92;98829.55;1794718;79;21468;-65
2022/04/28 04:58:44;;;;;;;79.42;48.75;;;;;;;5.71;94.40;98829.34;1798437;79;20924;-65
2022/04/28 05:01:10;;;;;;;33.30;24.12;;;;;;;5.81;94.22;98832.30;1797793;79;20874;-65
2022/04/28 05:03:36;;;;;;;39.38;23.47;;;;;;;5.91;93.85;98828.59;1798357;79;20895;-65
2022/04/28 05:06:02;;;;;;;43.98;24.07;;;;;;;6.00;93.37;98830.42;1798584;78;20935;-65
2022/04/28 05:08:28;;;;;;;34.75;20.75;;;;;;;6.05;93.94;98831.34;1798595;78;22101;-65
2022/04/28 05:10:54;;;;;;;36.48;24.50;;;;;;;6.18;93.74;98829.81;1798741;77;20828;-65
2022/04/28 05:13:20;;;;;;;38.20;22.27;;;;;;;6.27;93.43;98836.20;1788545;79;21074;-66
2022/04/28 05:15:47;;;;;;;40.60;24.67;;;;;;;6.41;93.41;98838.45;1796161;78;21575;-65
2022/04/28 05:18:13;;;;;;;41.70;24.90;;;;;;;6.59;93.31;98840.22;1795113;78;21261;-65
2022/04/28 05:20:39;;;;;;;38.90;24.52;;;;;;;6.76;93.12;98842.50;1804737;78;21770;-65
2022/04/28 05:23:05;;;;;;;36.53;23.32;;;;;;;6.95;93.11;98847.75;1797240;78;20835;-65
2022/04/28 05:25:31;;;;;;;37.00;23.62;;;;;;;7.06;92.32;98847.73;1798486;79;20879;-65
2022/04/28 05:27:57;;;;;;;36.68;22.85;;;;;;;7.16;92.18;98844.42;1798850;79;20934;-65
2022/04/28 05:30:23;;;;;;;40.95;24.20;;;;;;;7.22;91.66;98850.75;1798932;79;20947;-64
2022/04/28 05:32:49;;;;;;;46.35;27.93;;;;;;;7.31;91.89;98858.23;1797639;79;21510;-64
2022/04/28 05:35:15;;;;;;;40.17;25.85;;;;;;;7.49;92.04;98855.08;1798939;79;21552;-65
2022/04/28 05:37:41;;;;;;;35.20;23.18;;;;;;;7.63;91.50;98864.01;1798556;78;21410;-65
2022/04/28 05:40:08;;;;;;;33.58;21.37;;;;;;;7.75;91.02;98860.44;1798691;79;20864;-69
2022/04/28 05:48:04;;;;;;;37.33;24.07;;;;;;;8.08;89.33;98861.05;1831070;78;21037;-80
2022/04/28 05:50:31;;;;;;;34.78;22.05;;;;;;;8.17;88.89;98863.11;1805659;77;21025;-80
2022/04/28 05:52:57;;;;;;;38.50;22.75;;;;;;;8.21;87.78;98864.80;1754240;79;21455;-80
2022/04/28 05:55:23;;;;;;;37.17;22.25;;;;;;;8.40;89.02;98870.29;1795757;79;20979;-80
2022/04/28 05:57:49;;;;;;;32.38;22.62;;;;;;;8.55;88.67;98875.13;1727515;81;21113;-81
2022/04/28 06:00:16;;;;;;;35.35;21.73;;;;;;;8.70;88.88;98871.30;1769303;79;20939;-80
2022/04/28 06:02:42;;;;;;;48.13;23.25;;;;;;;8.90;89.05;98872.69;1792357;78;21005;-81
2022/04/28 06:05:08;;;;;;;29.67;20.70;;;;;;;9.09;89.02;98876.74;1817945;78;20884;-87
2022/04/28 06:07:34;;;;;;;37.35;22.75;;;;;;;9.07;87.58;98875.36;1802714;78;21090;-86
2022/04/28 06:10:00;;;;;;;40.38;26.42;;;;;;;9.07;87.58;98875.36;1799485;78;21840;-80
2022/04/28 06:12:29;;;;;;;33.92;24.15;;;;;;;9.29;87.15;98872.14;1830156;78;20978;-84
2022/04/28 06:14:55;;;;;;;;;;;;;;;9.29;87.15;98872.14;1833684;77;21552;-80
2022/04/28 06:17:22;;;;;;;48.28;30.45;;;;;;;9.36;86.79;98871.95;1831403;77;20182;-81
2022/04/28 06:19:48;;;;;;;38.30;26.10;;;;;;;9.46;86.97;98868.02;1796639;77;21090;-86
2022/04/28 06:22:14;;;;;;;44.35;28.42;;;;;;;9.65;85.88;98868.52;1798115;77;21087;-86
2022/04/28 06:24:39;;;;;;;48.10;29.70;;;;;;;9.93;86.34;98873.73;1792004;78;20938;-84
2022/04/28 06:27:05;;;;;;;44.55;25.68;;;;;;;10.21;86.53;98875.35;1793858;78;20872;-84
2022/04/28 06:29:31;;;;;;;38.05;23.20;;;;;;;10.47;85.47;98868.84;1794550;77;20962;-84
2022/04/28 06:31:57;;;;;;;38.53;24.50;;;;;;;10.62;81.79;98874.39;1811504;77;21067;-84
2022/04/28 06:34:23;;;;;;;33.67;22.37;;;;;;;10.80;83.08;98883.48;1781906;78;21946;-84
2022/04/28 06:36:49;;;;;;;33.75;20.77;;;;;;;10.88;79.53;98870.79;1790059;78;20832;-84
2022/04/28 06:39:15;;;;;;;37.28;21.20;;;;;;;10.88;76.84;98874.86;1792513;78;20883;-84
2022/04/28 06:41:41;;;;;;;38.45;21.97;;;;;;;11.13;79.27;98870.68;1793274;77;21621;-79
2022/04/28 06:44:07;;;;;;;31.50;20.90;;;;;;;11.50;79.54;98874.11;1789471;78;20966;-80
2022/04/28 06:46:33;;;;;;;35.73;21.20;;;;;;;11.94;78.63;98868.32;1756144;79;21332;-80
2022/04/28 06:48:58;;;;;;;35.10;23.00;;;;;;;12.47;79.34;98872.20;1757711;79;20882;-80
2022/04/28 06:51:24;;;;;;;72.32;40.95;;;;;;;12.70;78.98;98871.66;1752234;79;21001;-80
2022/04/28 06:53:50;;;;;;;37.03;23.30;;;;;;;12.73;75.17;98872.47;1737831;80;21030;-79
2022/04/28 06:56:17;;;;;;;30.05;18.95;;;;;;;12.91;75.63;98871.94;1794487;78;20884;-79
2022/04/28 06:58:43;;;;;;;22.73;15.03;;;;;;;13.08;74.96;98866.19;1783468;77;22017;-80
2022/04/28 07:01:09;;;;;;;22.20;14.47;;;;;;;13.20;74.73;98864.01;1785505;77;20875;-80
2022/04/28 07:03:35;;;;;;;20.00;14.43;;;;;;;13.34;68.83;98873.78;1804990;77;20835;-79
2022/04/28 07:06:01;;;;;;;23.32;14.60;;;;;;;13.40;64.42;98869.92;1787182;77;20953;-80
2022/04/28 07:08:27;;;;;;;25.62;14.23;;;;;;;13.59;60.50;98866.59;1793341;78;22635;-80
2022/04/28 07:10:52;;;;;;;22.25;13.55;;;;;;;13.98;61.14;98868.05;1798118;77;21205;-80
2022/04/28 07:13:18;;;;;;;20.25;13.25;;;;;;;14.55;59.69;98865.25;1792227;78;20906;-79
2022/04/28 07:15:44;;;;;;;19.90;13.85;;;;;;;14.99;58.91;98860.22;1789742;78;20902;-80
2022/04/28 07:18:11;;;;;;;18.70;13.83;;;;;;;15.37;59.86;98864.70;1794272;77;20883;-80
2022/04/28 07:20:37;;;;;;;19.25;13.10;;;;;;;16.00;60.12;98865.87;1791495;78;21006;-80
2022/04/28 07:23:03;;;;;;;21.70;13.00;;;;;;;16.26;52.82;98863.59;1791526;78;21105;-80
2022/04/28 07:25:30;;;;;;;19.00;12.80;;;;;;;16.77;58.34;98862.81;1775778;78;21514;-80
2022/04/28 07:27:56;;;;;;;17.07;12.65;;;;;;;17.12;56.49;98864.10;1801163;77;21435;-80
2022/04/28 07:30:22;;;;;;;20.25;11.97;;;;;;;17.50;56.40;98865.28;1802855;78;20859;-80
2022/04/28 07:32:48;;;;;;;17.30;11.78;;;;;;;17.79;54.13;98871.05;1784984;78;21529;-80
2022/04/28 07:35:15;;;;;;;16.23;12.30;;;;;;;18.11;52.50;98864.02;1807892;77;21106;-80
2022/04/28 07:37:41;;;;;;;17.23;12.37;;;;;;;18.52;51.18;98864.45;1799569;77;21139;-80
2022/04/28 07:40:08;;;;;;;18.20;11.90;;;;;;;19.06;53.11;98875.77;1761233;79;21033;-80
2022/04/28 07:42:34;;;;;;;15.40;10.68;;;;;;;19.29;48.33;98865.52;1775568;78;22998;-80
2022/04/28 07:45:00;;;;;;;15.93;11.40;;;;;;;19.25;45.26;98863.73;1794527;78;20947;-80
2022/04/28 07:47:29;;;;;;;18.02;10.63;;;;;;;18.50;47.85;98864.77;1785611;78;21108;-80
2022/04/28 07:49:55;;;;;;;17.80;12.65;;;;;;;17.76;47.24;98872.45;1782605;78;21045;-80
2022/04/28 07:52:20;;;;;;;16.07;11.75;;;;;;;17.65;44.62;98869.09;1786137;77;20910;-79
2022/04/28 07:54:46;;;;;;;15.10;11.63;;;;;;;18.26;46.58;98861.50;1785924;77;20891;-80
2022/04/28 07:57:13;;;;;;;14.58;9.85;;;;;;;18.55;46.29;98864.66;1800679;78;21957;-80
2022/04/28 07:59:39;;;;;;;17.85;10.90;;;;;;;17.81;46.97;98864.70;1804766;77;21255;-79
2022/04/28 08:02:08;;;;;;;16.17;10.48;;;;;;;16.96;47.87;98873.70;1764493;78;39817;-79
2022/04/28 08:04:34;;;;;;;16.35;11.30;;;;;;;16.03;46.67;98869.38;1773897;79;21102;-80
2022/04/28 08:06:59;;;;;;;16.15;11.50;;;;;;;16.45;49.56;98869.04;1800088;77;21600;-85
2022/04/28 08:09:25;;;;;;;18.92;11.65;;;;;;;17.69;48.36;98872.86;1805146;78;20958;-85
2022/04/28 08:11:51;;;;;;;16.97;11.53;;;;;;;18.33;45.49;98866.00;1788722;78;21664;-86
2022/04/28 08:14:17;;;;;;;16.07;10.82;;;;;;;18.84;43.46;98871.09;1805742;76;20883;-87
2022/04/28 08:16:44;;;;;;;8.83;5.72;;;;;;;19.52;40.99;98874.52;1785534;79;20938;-86
2022/04/28 08:19:10;;;;;;;9.18;5.83;;;;;;;19.44;33.85;98862.92;1786380;77;21013;-85
2022/04/28 08:21:36;;;;;;;12.80;6.40;;;;;;;20.58;35.04;98866.96;1825536;77;20964;-86
2022/04/28 08:24:03;;;;;;;7.17;5.40;;;;;;;22.08;36.31;98873.31;1774207;77;21449;-86
2022/04/28 08:26:29;;;;;;;6.25;4.17;;;;;;;21.79;33.54;98868.56;1772780;78;21478;-86
2022/04/28 08:28:54;;;;;;;9.33;6.67;;;;;;;22.89;35.31;98859.00;1794309;79;20854;-80
2022/04/28 08:31:21;;;;;;;8.83;7.25;;;;;;;23.72;32.71;98864.80;1793450;78;22557;-81
2022/04/28 08:33:47;;;;;;;8.73;6.33;;;;;;;23.82;34.38;98864.91;1800834;78;21438;-80
2022/04/28 08:36:14;;;;;;;10.13;7.03;;;;;;;24.03;28.04;98862.03;1812861;78;21164;-80
2022/04/28 08:38:39;;;;;;;14.43;8.35;;;;;;;23.76;32.17;98857.44;1802506;78;21339;-81
2022/04/28 08:41:09;;;;;;;10.60;6.78;;;;;;;23.62;32.70;98863.89;1796908;78;20872;-81
2022/04/28 08:43:37;;;;;;;9.53;6.65;;;;;;;22.86;32.36;98861.06;1796437;77;21553;-80
2022/04/28 08:48:51;;;;;;;10.18;7.75;;;;;;;22.15;31.03;98873.02;1727209;81;21158;-80
2022/04/28 08:51:19;;;;;;;12.45;7.03;;;;;;;23.14;29.44;98860.45;1772001;78;21388;-81
2022/04/28 08:53:47;;;;;;;10.03;5.75;;;;;;;23.84;32.02;98856.52;1736630;80;21094;-81
2022/04/28 08:56:13;;;;;;;;;;;;;;;22.18;31.58;98869.58;1756146;79;21081;-81
2022/04/28 08:58:39;;;;;;;13.68;8.95;;;;;;;20.69;32.17;98860.01;1762876;79;20995;-80
2022/04/28 09:01:05;;;;;;;12.98;9.83;;;;;;;19.47;35.43;98865.02;1783344;78;21062;-80
2022/04/28 09:03:31;;;;;;;14.33;8.75;;;;;;;18.80;35.21;98859.66;1799841;77;21077;-81
2022/04/28 09:05:58;;;;;;;10.13;6.17;;;;;;;19.17;36.14;98870.80;1775638;79;20952;-81
2022/04/28 09:08:24;;;;;;;8.08;5.60;;;;;;;20.81;34.39;98863.47;1775045;79;21117;-85
2022/04/28 09:10:50;;;;;;;9.53;6.03;;;;;;;22.33;32.43;98859.89;1772628;78;21067;-86
2022/04/28 09:16:00;;;;;;;6.37;4.95;;;;;;;25.10;29.04;98859.02;1741711;80;21422;-89
2022/04/28 09:18:26;;;;;;;5.78;4.08;;;;;;;24.76;25.80;98850.73;1786342;78;20903;-89
2022/04/28 09:20:52;;;;;;;7.05;4.42;;;;;;;23.48;28.06;98857.84;1782185;78;21534;-88
2022/04/28 09:23:20;;;;;;;14.50;4.97;;;;;;;23.35;25.15;98859.80;1784396;78;20899;-90
2022/04/28 09:25:46;;;;;;;6.53;4.97;;;;;;;24.73;26.03;98848.69;1785205;77;27136;-86
2022/04/28 09:28:12;;;;;;;7.00;5.03;;;;;;;25.33;25.73;98852.30;1792133;78;20863;-90
2022/04/28 09:30:49;;;;;;;6.62;4.80;;;;;;;26.16;25.11;98860.08;1791363;78;21004;-90
2022/04/28 09:33:18;;;;;;;8.43;5.30;;;;;;;26.59;22.62;98847.12;1780425;80;21592;-88
2022/04/28 09:35:47;;;;;;;7.45;4.62;;;;;;;26.88;22.78;98849.28;1814062;78;20979;-90
2022/04/28 09:38:13;;;;;;;5.95;5.22;;;;;;;25.28;21.56;98853.36;1815162;78;21869;-90
2022/04/28 09:43:24;;;;;;;5.83;4.78;;;;;;;26.18;23.09;98854.95;1794764;78;21441;-89
2022/04/28 09:45:50;;;;;;;10.13;6.35;;;;;;;22.68;25.72;98854.07;1805957;78;21343;-90
2022/04/28 09:48:17;;;;;;;7.50;5.15;;;;;;;21.09;27.58;98863.88;1806238;78;21045;-89
2022/04/28 09:50:43;;;;;;;10.60;7.30;;;;;;;19.64;30.65;98871.18;1743643;79;21141;-89
2022/04/28 09:53:09;;;;;;;8.88;6.80;;;;;;;18.04;33.60;98884.22;1802027;78;20923;-85
2022/04/28 09:55:36;;;;;;;8.85;7.12;;;;;;;17.03;35.46;98880.16;1776987;78;21090;-85
2022/04/28 09:58:06;;;;;;;8.68;6.78;;;;;;;16.73;36.40;98878.74;1790496;78;21042;-86
2022/04/28 10:00:33;;;;;;;8.08;6.90;;;;;;;16.08;38.07;98873.42;1785342;78;21014;-85
2022/04/28 10:03:01;;;;;;;14.05;8.90;;;;;;;16.21;37.88;98871.85;1810193;78;21135;-86
2022/04/28 10:05:27;;;;;;;10.28;7.70;;;;;;;16.19;39.77;98872.71;1824261;77;22745;-86
2022/04/28 10:07:53;;;;;;;16.17;8.68;;;;;;;16.35;40.15;98878.77;1813119;76;20977;-85
2022/04/28 10:10:19;;;;;;;15.45;12.20;;;;;;;15.99;41.21;98873.01;1783374;78;21125;-85
2022/04/28 10:12:47;;;;;;;15.40;9.90;;;;;;;16.16;41.95;98870.58;1794946;78;20902;-85
2022/04/28 10:15:13;;;;;;;12.18;8.10;;;;;;;15.97;41.97;98866.45;1820045;78;21970;-86
2022/04/28 10:17:55;;;;;;;11.53;8.30;;;;;;;15.94;42.88;98871.14;1801080;78;20964;-86
2022/04/28 10:20:31;;;;;;;13.68;7.83;;;;;;;16.68;41.60;98865.13;1782543;79;21036;-85
2022/04/28 10:23:01;;;;;;;12.93;7.50;;;;;;;17.27;39.04;98868.49;1809993;78;21073;-86
2022/04/28 10:34:13;;;;;;;14.87;8.13;;;;;;;18.35;38.17;98859.64;1786246;78;21092;-86
2022/04/28 10:36:58;;;;;;;12.33;8.33;;;;;;;18.23;38.41;98853.34;1798298;78;21061;-85
2022/04/28 10:39:39;;;;;;;10.40;7.55;;;;;;;18.46;36.59;98853.37;1796099;79;21100;-86
2022/04/28 10:42:17;;;;;;;10.70;7.30;;;;;;;18.56;37.92;98857.23;1758386;79;21151;-86
2022/04/28 10:44:54;;;;;;;12.80;7.45;;;;;;;18.23;37.56;98860.75;1794110;78;21576;-86
2022/04/28 10:47:35;;;;;;;11.12;7.17;;;;;;;17.18;37.87;98871.67;1802874;77;21042;-85
2022/04/28 10:50:01;;;;;;;13.25;7.25;;;;;;;17.10;38.71;98874.55;1802091;79;20991;-85
2022/04/28 10:52:27;;;;;;;11.48;8.03;;;;;;;16.62;39.26;98868.50;1789891;78;21116;-87
2022/04/28 10:54:54;;;;;;;11.08;6.55;;;;;;;16.21;38.68;98866.94;1801203;78;21134;-86
2022/04/28 10:57:31;;;;;;;10.68;6.47;;;;;;;15.93;39.40;98868.70;1805167;76;21437;-87
2022/04/28 10:59:57;;;;;;;10.23;7.33;;;;;;;15.44;39.78;98865.17;1804555;77;21044;-86
2022/04/28 11:02:29;;;;;;;9.18;6.85;;;;;;;15.72;40.97;98876.34;1783544;79;20855;-86
2022/04/28 11:05:01;;;;;;;8.33;5.83;;;;;;;15.65;40.03;98867.16;1795172;76;21464;-86
2022/04/28 11:07:31;;;;;;;9.33;5.75;;;;;;;15.71;39.31;98872.80;1811360;76;21852;-87
2022/04/28 11:10:00;;;;;;;11.00;6.28;;;;;;;15.56;38.21;98872.98;1787868;79;21063;-86
2022/04/28 11:12:34;;;;;;;;;;;;;;;15.51;37.67;98871.66;1799376;78;22258;-86
2022/04/28 11:15:05;;;;;;;9.40;6.17;;;;;;;15.88;38.75;98872.31;1798914;78;20429;-86
2022/04/28 11:17:32;;;;;;;10.23;5.58;;;;;;;16.35;38.20;98869.20;1806587;75;21151;-86
2022/04/28 11:20:12;;;;;;;10.60;8.70;;;;;;;16.49;37.05;98873.34;1789458;78;21924;-86
2022/04/28 11:22:51;;;;;;;15.45;6.80;;;;;;;16.78;38.19;98866.36;1782086;79;21446;-87
2022/04/28 11:25:20;;;;;;;9.03;5.95;;;;;;;17.07;38.08;98864.18;1767342;79;20986;-88
2022/04/28 11:27:48;;;;;;;;;;;;;;;16.88;38.25;98868.91;1809681;78;21213;-87
2022/04/28 11:30:18;;;;;;;9.70;5.67;;;;;;;16.71;38.50;98865.37;1809558;76;20696;-86
2022/04/28 11:32:51;;;;;;;9.88;6.58;;;;;;;16.37;38.51;98865.61;1768411;79;21114;-86
2022/04/28 11:35:20;;;;;;;13.18;6.95;;;;;;;16.42;39.34;98866.09;1802694;79;21013;-88
2022/04/28 11:37:48;;;;;;;8.18;5.80;;;;;;;16.41;40.02;98868.02;1803182;79;21037;-86
2022/04/28 11:40:16;;;;;;;13.28;8.58;;;;;;;16.25;39.98;98865.26;1802773;78;21053;-88
2022/04/28 11:42:42;;;;;;;26.27;16.48;;;;;;;16.21;41.30;98866.94;1789164;77;21009;-87
2022/04/28 11:45:09;;;;;;;9.68;7.00;;;;;;;16.05;41.15;98861.69;1748860;79;22167;-87
2022/04/28 11:47:45;;;;;;;12.07;7.92;;;;;;;15.82;40.50;98867.23;1804973;78;20981;-87
2022/04/28 11:50:23;;;;;;;34.78;28.30;;;;;;;15.88;41.22;98866.03;1772007;79;21071;-88
2022/04/28 11:53:06;;;;;;;26.17;20.08;;;;;;;15.98;40.93;98868.09;1797237;77;21101;-87
2022/04/28 11:55:35;;;;;;;19.40;15.72;;;;;;;16.22;41.21;98869.38;1739429;80;21104;-87
2022/04/28 11:58:02;;;;;;;8.95;6.55;;;;;;;16.48;40.92;98869.80;1783960;79;21712;-81
2022/04/28 12:00:27;;;;;;;9.20;7.00;;;;;;;16.75;40.70;98866.94;1793856;77;21015;-81
2022/04/28 12:02:54;;;;;;;9.88;6.03;;;;;;;16.67;38.14;98862.95;1810806;77;21426;-81
2022/04/28 12:05:23;;;;;;;10.93;6.47;;;;;;;16.89;39.15;98868.61;1763982;79;21038;-81
2022/04/28 12:07:52;;;;;;;;;;;;;;;16.95;37.77;98861.12;1804753;78;20987;-81
2022/04/28 12:16:16;;;;;;;6.45;4.95;;;;;;;17.33;36.39;98867.25;1788258;78;21521;-81
2022/04/28 12:21:37;;;;;;;5.30;4.22;;;;;;;17.73;34.99;98859.38;1776992;79;21025;-81
2022/04/28 12:24:15;;;;;;;6.85;4.70;;;;;;;18.36;35.43;98849.47;1789091;78;21119;-81
2022/04/28 12:26:43;;;;;;;6.13;4.37;;;;;;;18.51;34.35;98850.48;1775389;78;21045;-81
2022/04/28 12:29:12;;;;;;;8.90;5.25;;;;;;;18.52;35.07;98845.23;1805798;77;20929;-81
2022/04/28 12:31:38;;;;;;;5.95;3.85;;;;;;;18.30;34.81;98845.49;1805650;77;21496;-81
2022/04/28 12:34:19;;;;;;;7.03;4.08;;;;;;;17.83;33.98;98841.34;1811219;77;20961;-81
2022/04/28 12:36:54;;;;;;;11.10;4.75;;;;;;;17.79;35.05;98844.45;1791168;78;21104;-81
2022/04/28 12:39:21;;;;;;;8.38;4.92;;;;;;;17.55;33.66;98846.58;1798520;77;21078;-81